Terminal Aerodrome Forecast
Issued by NWS Cleveland, OH

Home | Current Version | Previous Version | Graphics & Text | Print | Product List | Glossary On
Versions: 1 2 3 4 5 6 7 8 9 10 11 12 13 14 15 16 17 18 19 20 21
466
FTUS41 KCLE 082340
TAFTOL
TAF
KTOL 082340Z 0900/0924 29010KT P6SM SCT045 BKN060
     FM090500 30006KT P6SM OVC012
     FM091500 28012KT 6SM -SHSN OVC020=

USA.gov is the U.S. government's official web portal to all federal, state and local government web resources and services.